createdAt,value
2022-12-23T00:01:24.304Z,34.70
2022-12-23T00:03:53.136Z,33.70
2022-12-23T00:06:21.376Z,38.30
2022-12-23T00:08:49.397Z,41.00
2022-12-23T00:11:19.947Z,34.00
2022-12-23T00:14:06.396Z,38.00
2022-12-23T00:16:37.397Z,37.20
2022-12-23T00:19:06.220Z,33.40
2022-12-23T00:21:35.891Z,37.10
2022-12-23T00:24:04.508Z,37.30
2022-12-23T00:26:32.358Z,40.50
2022-12-23T00:29:00.579Z,36.00
2022-12-23T00:31:28.827Z,39.00
2022-12-23T00:33:56.717Z,36.90
2022-12-23T00:36:28.008Z,40.10
2022-12-23T00:39:17.576Z,38.40
2022-12-23T00:42:04.814Z,40.60
2022-12-23T00:44:33.067Z,38.90
2022-12-23T00:47:00.990Z,36.80
2022-12-23T00:49:44.559Z,40.10
2022-12-23T00:52:15.750Z,37.60
2022-12-23T00:54:43.920Z,36.30
2022-12-23T00:57:12.142Z,40.00
2022-12-23T00:59:40.021Z,39.80
2022-12-23T01:02:30.179Z,42.60
2022-12-23T01:05:16.919Z,41.30
2022-12-23T01:07:45.059Z,36.10
2022-12-23T01:10:13.116Z,34.20
2022-12-23T01:12:41.290Z,40.40
2022-12-23T01:15:09.589Z,42.90
2022-12-23T01:17:37.724Z,41.30
2022-12-23T01:20:06.467Z,44.20
2022-12-23T01:22:34.337Z,44.10
2022-12-23T01:25:02.617Z,48.80
2022-12-23T01:27:30.917Z,42.60
2022-12-23T01:29:59.153Z,38.30
2022-12-23T01:32:27.235Z,38.80
2022-12-23T01:34:55.087Z,44.90
2022-12-23T01:37:23.544Z,43.50
2022-12-23T01:39:51.498Z,38.20
2022-12-23T01:42:39.787Z,40.20
2022-12-23T01:45:30.587Z,44.10
2022-12-23T01:50:41.678Z,40.30
2022-12-23T01:53:19.645Z,36.30
2022-12-23T01:55:53.329Z,38.40
2022-12-23T01:58:27.525Z,38.10
2022-12-23T02:01:16.895Z,43.20
2022-12-23T02:03:46.973Z,36.20
2022-12-23T02:06:57.530Z,42.20
2022-12-23T02:09:34.309Z,37.60
2022-12-23T02:12:31.827Z,41.40
2022-12-23T02:15:27.874Z,43.00
2022-12-23T02:18:11.073Z,34.40
2022-12-23T02:20:59.963Z,35.60
2022-12-23T02:23:37.145Z,39.70
2022-12-23T02:26:30.078Z,39.60
2022-12-23T02:29:37.311Z,42.60
2022-12-23T02:32:16.780Z,37.50
2022-12-23T02:35:11.473Z,43.70
2022-12-23T02:37:48.259Z,44.00
2022-12-23T02:40:29.342Z,40.50
2022-12-23T02:43:12.503Z,40.80
2022-12-23T02:45:54.801Z,42.30
2022-12-23T02:48:35.287Z,39.00
2022-12-23T02:51:06.364Z,47.00
2022-12-23T02:53:56.611Z,39.20
2022-12-23T02:56:27.515Z,39.10
2022-12-23T02:59:00.958Z,41.50
2022-12-23T03:01:32.153Z,49.30
2022-12-23T03:04:00.544Z,41.50
2022-12-23T03:06:33.281Z,44.60
2022-12-23T03:09:01.610Z,43.90
2022-12-23T03:12:06.127Z,43.30
2022-12-23T03:15:05.289Z,42.30
2022-12-23T03:17:54.228Z,40.00
2022-12-23T03:20:39.276Z,41.90
2022-12-23T03:23:23.806Z,43.80
2022-12-23T03:26:14.239Z,45.90
2022-12-23T03:29:00.760Z,36.80
2022-12-23T03:31:31.805Z,37.70
2022-12-23T03:34:08.671Z,39.00
2022-12-23T03:36:49.405Z,38.90
2022-12-23T03:41:54.115Z,31.30
2022-12-23T03:44:30.606Z,33.40
2022-12-23T03:47:07.088Z,34.10
2022-12-23T03:50:11.620Z,31.40
2022-12-23T03:52:45.804Z,32.50
2022-12-23T03:55:20.842Z,27.10
2022-12-23T03:57:58.367Z,30.50
2022-12-23T04:00:30.574Z,33.20
2022-12-23T04:03:22.050Z,34.40
2022-12-23T04:05:57.421Z,31.90
2022-12-23T04:08:37.617Z,32.10
2022-12-23T04:11:06.329Z,35.00
2022-12-23T04:13:34.670Z,31.10
2022-12-23T04:16:03.186Z,33.90
2022-12-23T04:18:31.565Z,29.70
2022-12-23T04:20:59.746Z,31.20
2022-12-23T04:23:27.675Z,32.10
2022-12-23T04:25:56.177Z,30.70
2022-12-23T04:28:24.314Z,30.50
2022-12-23T04:30:52.523Z,32.30
2022-12-23T04:33:20.419Z,28.90
2022-12-23T04:35:48.317Z,31.80
2022-12-23T04:38:16.533Z,26.20
2022-12-23T04:40:47.814Z,43.70
2022-12-23T04:43:16.068Z,43.40
2022-12-23T04:45:43.972Z,39.70
2022-12-23T04:48:12.194Z,41.20
2022-12-23T04:50:40.222Z,40.10
2022-12-23T04:53:08.342Z,37.80
2022-12-23T04:55:36.255Z,38.80
2022-12-23T04:58:04.633Z,45.90
2022-12-23T05:00:39.117Z,44.60
2022-12-23T05:03:08.026Z,34.60
2022-12-23T05:05:36.357Z,34.80
2022-12-23T05:08:05.489Z,40.00
2022-12-23T05:10:33.481Z,33.20
2022-12-23T05:13:01.615Z,31.30
2022-12-23T05:15:33.096Z,31.50
2022-12-23T05:18:01.337Z,35.50
2022-12-23T05:20:29.277Z,38.90
2022-12-23T05:22:57.792Z,30.70
2022-12-23T05:25:25.702Z,31.70
2022-12-23T05:27:53.691Z,31.50
2022-12-23T05:30:21.967Z,33.70
2022-12-23T05:32:54.316Z,27.80
2022-12-23T05:35:23.776Z,31.90
2022-12-23T05:37:52.134Z,31.80
2022-12-23T05:40:23.879Z,32.70
2022-12-23T05:42:53.520Z,27.70
2022-12-23T05:45:21.621Z,33.00
2022-12-23T05:47:49.563Z,32.10
2022-12-23T05:50:17.540Z,32.70
2022-12-23T05:52:45.823Z,35.80
2022-12-23T05:55:14.057Z,35.00
2022-12-23T05:57:42.039Z,34.20
2022-12-23T06:00:10.937Z,36.90
2022-12-23T06:02:42.097Z,36.40
2022-12-23T06:05:11.865Z,34.90
2022-12-23T06:07:40.687Z,32.10
2022-12-23T06:10:10.507Z,36.00
2022-12-23T06:12:38.840Z,31.90
2022-12-23T06:15:07.860Z,35.40
2022-12-23T06:17:35.860Z,37.90
2022-12-23T06:20:04.671Z,36.20
2022-12-23T06:22:32.933Z,38.50
2022-12-23T06:25:00.954Z,30.40
2022-12-23T06:27:28.950Z,35.60
2022-12-23T06:29:57.330Z,35.90
2022-12-23T06:32:25.506Z,39.30
2022-12-23T06:34:53.820Z,41.90
2022-12-23T06:37:21.839Z,41.90
2022-12-23T06:39:49.875Z,43.10
2022-12-23T06:42:17.763Z,43.50
2022-12-23T06:44:45.751Z,50.60
2022-12-23T06:47:13.789Z,45.70
2022-12-23T06:49:41.906Z,50.40
2022-12-23T06:52:10.420Z,48.10
2022-12-23T06:54:38.579Z,42.40
2022-12-23T06:57:06.591Z,44.50
2022-12-23T06:59:34.801Z,46.70
2022-12-23T07:02:03.666Z,45.60
2022-12-23T07:04:31.973Z,43.40
2022-12-23T07:07:00.176Z,48.50
2022-12-23T07:09:28.161Z,44.50
2022-12-23T07:11:56.023Z,44.80
2022-12-23T07:14:24.191Z,46.10
2022-12-23T07:16:52.237Z,40.70
2022-12-23T07:19:20.402Z,52.40
2022-12-23T07:21:48.378Z,58.30
2022-12-23T07:24:17.066Z,61.00
2022-12-23T07:26:45.041Z,66.30
2022-12-23T07:29:13.164Z,65.50
2022-12-23T07:31:41.781Z,68.60
2022-12-23T07:34:10.140Z,65.40
2022-12-23T07:36:38.078Z,75.50
2022-12-23T07:39:06.796Z,72.20
2022-12-23T07:41:34.714Z,80.80
2022-12-23T07:44:09.002Z,72.40
2022-12-23T07:46:38.036Z,80.50
2022-12-23T07:49:06.522Z,67.30
2022-12-23T07:51:34.406Z,68.50
2022-12-23T07:54:02.914Z,63.50
2022-12-23T07:56:30.940Z,55.50
2022-12-23T07:58:58.816Z,57.20
2022-12-23T08:01:27.176Z,47.60
2022-12-23T08:03:55.278Z,35.30
2022-12-23T08:06:23.620Z,36.90
2022-12-23T08:08:51.509Z,26.70
2022-12-23T08:11:19.993Z,25.40
2022-12-23T08:13:49.257Z,27.80
2022-12-23T08:16:17.409Z,27.80
2022-12-23T08:18:45.783Z,24.90
2022-12-23T08:21:19.639Z,25.70
2022-12-23T08:23:48.527Z,28.60
2022-12-23T08:26:19.477Z,24.70
2022-12-23T08:28:48.830Z,24.00
2022-12-23T08:31:21.039Z,27.30
2022-12-23T08:33:52.068Z,28.70
2022-12-23T08:36:23.611Z,28.40
2022-12-23T08:38:54.722Z,29.00
2022-12-23T08:41:29.586Z,33.20
2022-12-23T08:43:57.779Z,31.40
2022-12-23T08:46:26.764Z,32.50
2022-12-23T08:48:55.379Z,28.40
2022-12-23T08:51:25.092Z,23.40
2022-12-23T08:54:01.070Z,27.20
2022-12-23T08:56:32.401Z,27.80
2022-12-23T08:59:00.885Z,29.80
2022-12-23T09:01:31.621Z,25.40
2022-12-23T09:04:06.051Z,25.20
2022-12-23T09:06:43.423Z,25.30
2022-12-23T09:09:15.681Z,23.30
2022-12-23T09:11:44.222Z,26.40
2022-12-23T09:14:12.606Z,24.90
2022-12-23T09:16:40.804Z,24.30
2022-12-23T09:19:09.408Z,28.10
2022-12-23T09:21:37.621Z,21.40
2022-12-23T09:24:06.280Z,28.40
2022-12-23T09:26:34.194Z,26.00
2022-12-23T09:29:02.314Z,25.10
2022-12-23T09:31:36.242Z,24.00
2022-12-23T09:34:05.697Z,27.10
2022-12-23T09:36:34.153Z,23.80
2022-12-23T09:39:02.382Z,23.30
2022-12-23T09:41:48.718Z,21.90
2022-12-23T09:44:25.978Z,24.40
2022-12-23T09:47:01.769Z,27.10
2022-12-23T09:49:29.949Z,23.90
2022-12-23T09:52:04.670Z,26.40
2022-12-23T09:54:46.407Z,22.90
2022-12-23T09:57:23.883Z,22.00
2022-12-23T10:00:06.961Z,22.40
2022-12-23T10:02:53.864Z,21.40
2022-12-23T10:05:53.575Z,23.60
2022-12-23T10:08:33.678Z,20.40
2022-12-23T10:11:10.972Z,23.20
2022-12-23T10:13:43.772Z,26.60
2022-12-23T10:16:19.525Z,25.30
2022-12-23T10:18:53.886Z,24.40
2022-12-23T10:21:47.541Z,20.40
2022-12-23T10:24:25.403Z,29.10
2022-12-23T10:27:06.561Z,25.90
2022-12-23T10:29:34.675Z,26.40
2022-12-23T10:32:11.936Z,23.80
2022-12-23T10:34:42.864Z,31.30
2022-12-23T10:37:34.897Z,26.60
2022-12-23T10:40:27.721Z,22.50
2022-12-23T10:43:04.742Z,28.00
2022-12-23T10:45:35.277Z,29.20
2022-12-23T10:50:37.020Z,25.90
2022-12-23T10:53:10.545Z,27.60
2022-12-23T10:55:39.541Z,25.40
2022-12-23T10:58:18.474Z,28.30
2022-12-23T11:00:52.584Z,25.30
2022-12-23T11:03:32.052Z,26.70
2022-12-23T11:06:01.329Z,35.60
2022-12-23T11:08:31.467Z,29.10
2022-12-23T11:11:01.182Z,22.60
2022-12-23T11:13:32.310Z,22.80
2022-12-23T11:16:24.110Z,28.00
2022-12-23T11:19:00.961Z,27.40
2022-12-23T11:21:30.845Z,31.90
2022-12-23T11:24:06.972Z,30.50
2022-12-23T11:26:36.091Z,28.80
2022-12-23T11:29:11.446Z,34.30
2022-12-23T11:31:42.648Z,28.90
2022-12-23T11:34:15.915Z,29.20
2022-12-23T11:36:54.694Z,28.40
2022-12-23T11:39:28.065Z,29.30
2022-12-23T11:42:27.380Z,32.10
2022-12-23T11:44:59.630Z,27.90
2022-12-23T11:47:34.028Z,28.30
2022-12-23T11:50:20.692Z,33.50
2022-12-23T11:52:55.776Z,70.50
2022-12-23T11:55:30.160Z,32.80
2022-12-23T11:58:00.588Z,36.60
2022-12-23T12:00:40.794Z,34.10
2022-12-23T12:03:19.080Z,33.30
2022-12-23T12:05:51.698Z,28.20
2022-12-23T12:08:24.862Z,34.00
2022-12-23T12:11:00.726Z,32.10
2022-12-23T12:13:32.560Z,35.00
2022-12-23T12:16:12.456Z,32.20
2022-12-23T12:18:43.648Z,33.60
2022-12-23T12:21:16.598Z,30.60
2022-12-23T12:24:14.839Z,32.40
2022-12-23T12:26:44.379Z,31.10
2022-12-23T12:29:16.843Z,36.00
2022-12-23T12:31:51.638Z,43.60
2022-12-23T12:34:23.523Z,34.70
2022-12-23T12:37:10.618Z,37.20
2022-12-23T12:39:48.956Z,32.00
2022-12-23T12:42:27.729Z,31.70
2022-12-23T12:44:59.865Z,26.90
2022-12-23T12:48:01.418Z,29.20
2022-12-23T12:50:34.623Z,26.20
2022-12-23T12:53:13.050Z,28.30
2022-12-23T12:55:46.277Z,28.20
2022-12-23T12:58:23.792Z,24.80
2022-12-23T13:01:18.861Z,20.60
2022-12-23T13:04:20.737Z,28.10
2022-12-23T13:07:23.671Z,22.40
2022-12-23T13:10:06.349Z,24.90
2022-12-23T13:12:54.082Z,25.00
2022-12-23T13:15:28.274Z,25.20
2022-12-23T13:18:03.464Z,24.00
2022-12-23T13:20:39.698Z,19.10
2022-12-23T13:23:42.428Z,23.10
2022-12-23T13:26:18.380Z,22.80
2022-12-23T13:29:03.715Z,24.60
2022-12-23T13:32:01.772Z,20.90
2022-12-23T13:34:42.493Z,21.50
2022-12-23T13:37:10.421Z,19.10
2022-12-23T13:39:55.331Z,19.00
2022-12-23T13:42:35.393Z,16.40
2022-12-23T13:45:05.899Z,18.70
2022-12-23T13:48:05.348Z,12.40
2022-12-23T13:50:40.435Z,12.80
2022-12-23T13:53:53.579Z,16.30
2022-12-23T13:56:35.071Z,15.20
2022-12-23T13:59:03.227Z,15.10
2022-12-23T14:01:44.004Z,17.70
2022-12-23T14:04:32.927Z,17.20
2022-12-23T14:07:18.143Z,16.10
2022-12-23T14:09:53.500Z,22.30
2022-12-23T14:12:39.261Z,23.10
2022-12-23T14:15:35.549Z,22.50
2022-12-23T14:18:04.866Z,24.30
2022-12-23T14:20:45.036Z,23.40
2022-12-23T14:23:41.190Z,23.70
2022-12-23T14:26:27.527Z,23.20
2022-12-23T14:29:14.247Z,22.00
2022-12-23T14:31:55.474Z,21.00
2022-12-23T14:34:32.835Z,19.30
2022-12-23T14:37:25.477Z,23.10
2022-12-23T14:39:54.302Z,17.30
2022-12-23T14:42:40.283Z,23.50
2022-12-23T14:45:35.673Z,18.00
2022-12-23T14:48:42.134Z,17.90
2022-12-23T14:51:10.126Z,15.10
2022-12-23T14:53:58.520Z,18.10
2022-12-23T14:56:47.432Z,24.50
2022-12-23T14:59:37.863Z,18.80
2022-12-23T15:02:22.155Z,19.80
2022-12-23T15:04:56.088Z,19.20
2022-12-23T15:07:46.714Z,19.70
2022-12-23T15:10:25.789Z,18.50
2022-12-23T15:12:58.310Z,16.10
2022-12-23T15:15:29.857Z,19.60
2022-12-23T15:18:07.016Z,16.60
2022-12-23T15:20:35.300Z,17.00
2022-12-23T15:23:10.363Z,17.40
2022-12-23T15:25:46.122Z,14.80
2022-12-23T15:28:22.838Z,17.60
2022-12-23T15:30:56.469Z,18.20
2022-12-23T15:36:30.648Z,21.80
2022-12-23T15:39:00.893Z,19.20
2022-12-23T15:41:30.022Z,21.30
2022-12-23T15:44:01.871Z,20.00
2022-12-23T15:46:32.129Z,20.90
2022-12-23T15:49:00.191Z,21.80
2022-12-23T15:52:07.273Z,22.40
2022-12-23T15:54:40.244Z,22.00
2022-12-23T15:57:12.144Z,20.80
2022-12-23T15:59:40.388Z,22.10
2022-12-23T16:02:58.447Z,22.20
2022-12-23T16:05:07.959Z,21.10
2022-12-23T16:07:41.129Z,18.90
2022-12-23T16:10:36.088Z,22.00
2022-12-23T16:13:04.400Z,18.40
2022-12-23T16:15:33.395Z,22.70
2022-12-23T16:18:21.711Z,19.60
2022-12-23T16:20:57.772Z,19.00
2022-12-23T16:23:30.242Z,20.50
2022-12-23T16:26:00.644Z,20.50
2022-12-23T16:28:41.026Z,17.80
2022-12-23T16:31:11.005Z,18.50
2022-12-23T16:33:46.016Z,19.50
2022-12-23T16:36:15.056Z,19.30
2022-12-23T16:38:43.326Z,19.10
2022-12-23T16:41:11.303Z,17.80
2022-12-23T16:43:40.730Z,19.70
2022-12-23T16:46:17.431Z,18.80
2022-12-23T16:49:00.587Z,19.00
2022-12-23T16:51:33.622Z,19.00
2022-12-23T16:54:02.166Z,19.10
2022-12-23T16:56:35.393Z,13.80
2022-12-23T16:59:04.460Z,16.90
2022-12-23T17:01:35.188Z,14.50
2022-12-23T17:04:03.485Z,14.20
2022-12-23T17:06:31.869Z,15.00
2022-12-23T17:08:59.816Z,13.80
2022-12-23T17:11:41.801Z,15.00
2022-12-23T17:14:16.682Z,18.60
2022-12-23T17:16:46.041Z,13.80
2022-12-23T17:19:15.627Z,16.60
2022-12-23T17:21:46.109Z,14.90
2022-12-23T17:26:51.364Z,14.70
2022-12-23T17:29:20.227Z,17.80
2022-12-23T17:31:49.042Z,15.70
2022-12-23T17:34:23.004Z,17.20
2022-12-23T17:36:51.485Z,16.20
2022-12-23T17:39:20.516Z,17.70
2022-12-23T17:41:48.783Z,17.40
2022-12-23T17:44:18.222Z,17.50
2022-12-23T17:46:47.314Z,11.90
2022-12-23T17:49:15.533Z,16.40
2022-12-23T17:51:44.028Z,15.90
2022-12-23T17:54:21.703Z,17.70
2022-12-23T17:56:51.036Z,16.40
2022-12-23T17:59:19.221Z,14.80
2022-12-23T18:01:47.320Z,15.10
2022-12-23T18:04:15.680Z,15.20
2022-12-23T18:06:43.985Z,13.90
2022-12-23T18:09:11.931Z,14.60
2022-12-23T18:11:44.037Z,13.60
2022-12-23T18:14:19.791Z,14.50
2022-12-23T18:16:48.071Z,13.00
2022-12-23T18:19:19.847Z,15.40
2022-12-23T18:21:48.445Z,14.10
2022-12-23T18:24:16.851Z,13.20
2022-12-23T18:26:45.847Z,13.30
2022-12-23T18:29:14.210Z,12.10
2022-12-23T18:31:50.964Z,10.40
2022-12-23T18:34:20.476Z,14.40
2022-12-23T18:36:48.985Z,13.30
2022-12-23T18:39:17.828Z,14.20
2022-12-23T18:41:46.132Z,11.60
2022-12-23T18:44:21.461Z,12.80
2022-12-23T18:46:50.050Z,15.00
2022-12-23T18:49:18.142Z,11.40
2022-12-23T18:51:46.476Z,17.10
2022-12-23T18:54:16.149Z,12.50
2022-12-23T18:56:44.288Z,11.70
2022-12-23T18:59:22.535Z,12.70
2022-12-23T19:01:56.770Z,12.40
2022-12-23T19:04:26.168Z,11.80
2022-12-23T19:06:56.384Z,13.20
2022-12-23T19:09:25.200Z,11.40
2022-12-23T19:11:54.362Z,12.90
2022-12-23T19:14:22.784Z,11.90
2022-12-23T19:16:52.344Z,10.30
2022-12-23T19:19:22.032Z,12.90
2022-12-23T19:21:50.066Z,11.80
2022-12-23T19:24:18.155Z,13.80
2022-12-23T19:26:46.355Z,12.90
2022-12-23T19:29:14.530Z,13.20
2022-12-23T19:31:42.500Z,11.40
2022-12-23T19:34:14.931Z,13.60
2022-12-23T19:36:44.286Z,12.10
2022-12-23T19:39:16.631Z,12.90
2022-12-23T19:41:45.553Z,11.60
2022-12-23T19:44:14.385Z,13.40
2022-12-23T19:46:42.554Z,12.50
2022-12-23T19:49:17.596Z,13.70
2022-12-23T19:51:48.485Z,12.20
2022-12-23T19:54:17.794Z,13.30
2022-12-23T19:56:46.100Z,12.60
2022-12-23T19:59:14.137Z,12.80
2022-12-23T20:01:42.615Z,18.10
2022-12-23T20:04:10.989Z,14.60
2022-12-23T20:06:41.127Z,16.80
2022-12-23T20:09:12.540Z,12.70
2022-12-23T20:11:43.648Z,11.50
2022-12-23T20:14:13.793Z,10.00
2022-12-23T20:16:42.832Z,12.70
2022-12-23T20:19:11.192Z,13.90
2022-12-23T20:21:39.670Z,14.90
2022-12-23T20:24:08.349Z,14.30
2022-12-23T20:26:36.548Z,20.30
2022-12-23T20:29:05.947Z,14.20
2022-12-23T20:31:38.133Z,16.30
2022-12-23T20:34:07.819Z,16.50
2022-12-23T20:36:36.937Z,16.10
2022-12-23T20:39:06.307Z,14.40
2022-12-23T20:41:34.655Z,17.40
2022-12-23T20:44:34.061Z,20.80
2022-12-23T20:46:51.020Z,18.90
2022-12-23T20:49:19.103Z,18.30
2022-12-23T20:51:47.458Z,15.80
2022-12-23T20:54:15.613Z,15.00
2022-12-23T20:56:43.617Z,15.60
2022-12-23T20:59:12.051Z,15.10
2022-12-23T21:01:41.665Z,22.50
2022-12-23T21:04:13.234Z,17.00
2022-12-23T21:06:42.290Z,17.30
2022-12-23T21:09:13.107Z,14.20
2022-12-23T21:11:44.460Z,21.50
2022-12-23T21:14:14.996Z,17.10
2022-12-23T21:16:43.879Z,15.90
2022-12-23T21:19:19.726Z,16.50
2022-12-23T21:21:48.736Z,22.00
2022-12-23T21:24:18.123Z,15.00
2022-12-23T21:26:51.874Z,18.50
2022-12-23T21:29:24.488Z,16.60
2022-12-23T21:31:52.544Z,14.90
2022-12-23T21:34:20.949Z,18.40
2022-12-23T21:36:49.225Z,16.80
2022-12-23T21:39:17.426Z,17.40
2022-12-23T21:41:46.336Z,21.60
2022-12-23T21:44:15.028Z,22.40
2022-12-23T21:46:43.823Z,18.00
2022-12-23T21:49:13.251Z,20.90
2022-12-23T21:51:41.953Z,20.90
2022-12-23T21:54:11.504Z,16.20
2022-12-23T21:56:40.474Z,19.00
2022-12-23T21:59:12.825Z,22.20
2022-12-23T22:01:43.014Z,20.70
2022-12-23T22:04:12.392Z,16.80
2022-12-23T22:06:44.070Z,20.50
2022-12-23T22:09:16.347Z,17.60
2022-12-23T22:11:45.744Z,17.30
2022-12-23T22:14:19.904Z,13.90
2022-12-23T22:16:48.480Z,16.90
2022-12-23T22:19:16.578Z,16.50
2022-12-23T22:21:45.088Z,15.00
2022-12-23T22:24:13.497Z,19.10
2022-12-23T22:26:42.223Z,17.20
2022-12-23T22:29:11.511Z,19.50
2022-12-23T22:31:44.788Z,19.50
2022-12-23T22:34:16.744Z,21.00
2022-12-23T22:36:45.139Z,18.20
2022-12-23T22:39:20.079Z,16.90
2022-12-23T22:41:51.005Z,18.90
2022-12-23T22:44:20.802Z,19.10
2022-12-23T22:46:48.958Z,17.00
2022-12-23T22:49:17.339Z,16.80
2022-12-23T22:51:45.929Z,20.30
2022-12-23T22:54:14.452Z,22.30
2022-12-23T22:56:42.587Z,21.30
2022-12-23T22:59:19.683Z,20.00
2022-12-23T23:01:49.310Z,19.60
2022-12-23T23:04:18.075Z,21.50
2022-12-23T23:06:46.184Z,18.60
2022-12-23T23:09:18.048Z,23.10
2022-12-23T23:11:46.735Z,25.00
2022-12-23T23:14:15.096Z,20.70
2022-12-23T23:16:43.400Z,20.80
2022-12-23T23:19:12.490Z,22.00
2022-12-23T23:21:40.670Z,22.80
2022-12-23T23:24:08.929Z,19.50
2022-12-23T23:26:37.651Z,22.60
2022-12-23T23:29:05.716Z,18.50
2022-12-23T23:31:42.727Z,28.20
2022-12-23T23:34:12.785Z,22.50
2022-12-23T23:36:42.093Z,25.40
2022-12-23T23:39:12.618Z,22.20
2022-12-23T23:41:41.456Z,23.40
2022-12-23T23:44:10.374Z,24.10
2022-12-23T23:46:39.498Z,19.50
2022-12-23T23:49:07.404Z,24.20
2022-12-23T23:51:35.678Z,22.70
2022-12-23T23:54:03.942Z,23.10
2022-12-23T23:56:37.817Z,23.40
2022-12-23T23:59:09.222Z,22.20
